createdAt,value
2023-02-14T00:01:55.200Z,8.35
2023-02-14T00:04:22.966Z,8.33
2023-02-14T00:06:50.845Z,8.31
2023-02-14T00:09:20.350Z,8.29
2023-02-14T00:11:49.618Z,8.25
2023-02-14T00:14:35.233Z,8.24
2023-02-14T00:17:03.209Z,8.13
2023-02-14T00:19:31.860Z,8.15
2023-02-14T00:22:02.316Z,8.22
2023-02-14T00:24:30.392Z,8.20
2023-02-14T00:26:59.620Z,8.17
2023-02-14T00:29:29.846Z,8.18
2023-02-14T00:32:01.476Z,8.09
2023-02-14T00:34:29.777Z,8.21
2023-02-14T00:37:00.547Z,8.16
2023-02-14T00:39:28.224Z,8.16
2023-02-14T00:41:56.009Z,8.03
2023-02-14T00:44:25.384Z,8.11
2023-02-14T00:46:53.132Z,8.23
2023-02-14T00:49:20.851Z,8.26
2023-02-14T00:51:48.647Z,8.32
2023-02-14T00:54:16.387Z,8.27
2023-02-14T00:56:44.114Z,8.40
2023-02-14T00:59:11.942Z,8.35
2023-02-14T01:01:41.311Z,8.19
2023-02-14T01:04:10.595Z,8.35
2023-02-14T01:06:39.565Z,8.32
2023-02-14T01:09:07.448Z,8.28
2023-02-14T01:11:35.484Z,8.22
2023-02-14T01:14:03.342Z,8.16
2023-02-14T01:16:31.750Z,8.08
2023-02-14T01:19:01.830Z,8.06
2023-02-14T01:21:31.670Z,8.06
2023-02-14T01:24:02.126Z,8.03
2023-02-14T01:26:31.126Z,7.91
2023-02-14T01:29:02.541Z,7.93
2023-02-14T01:31:33.187Z,7.98
2023-02-14T01:34:03.129Z,7.94
2023-02-14T01:36:32.671Z,7.95
2023-02-14T01:39:03.671Z,7.90
2023-02-14T01:41:33.566Z,7.94
2023-02-14T01:44:03.144Z,7.95
2023-02-14T01:46:32.598Z,7.87
2023-02-14T01:49:04.928Z,7.86
2023-02-14T01:51:35.726Z,7.76
2023-02-14T01:54:05.035Z,7.81
2023-02-14T01:56:36.487Z,7.74
2023-02-14T01:59:09.256Z,7.70
2023-02-14T02:01:37.048Z,7.63
2023-02-14T02:04:11.058Z,7.59
2023-02-14T02:06:42.843Z,7.55
2023-02-14T02:09:16.156Z,7.49
2023-02-14T02:11:44.576Z,7.52
2023-02-14T02:14:15.947Z,7.50
2023-02-14T02:17:15.639Z,7.50
2023-02-14T02:20:12.193Z,7.36
2023-02-14T02:23:11.965Z,7.38
2023-02-14T02:26:02.989Z,7.40
2023-02-14T02:28:55.888Z,7.40
2023-02-14T02:32:01.139Z,7.39
2023-02-14T02:35:21.843Z,7.35
2023-02-14T02:38:05.745Z,7.29
2023-02-14T02:40:48.702Z,7.22
2023-02-14T02:43:33.876Z,7.30
2023-02-14T02:46:22.840Z,7.27
2023-02-14T02:48:58.285Z,7.24
2023-02-14T02:51:52.410Z,7.20
2023-02-14T02:54:30.070Z,7.24
2023-02-14T02:56:59.681Z,7.22
2023-02-14T02:59:31.497Z,7.21
2023-02-14T03:02:06.318Z,7.17
2023-02-14T03:04:53.191Z,7.18
2023-02-14T03:07:36.734Z,7.15
2023-02-14T03:10:15.889Z,7.12
2023-02-14T03:13:29.593Z,7.12
2023-02-14T03:16:40.273Z,7.13
2023-02-14T03:19:32.088Z,7.10
2023-02-14T03:22:04.912Z,7.15
2023-02-14T03:24:47.148Z,7.12
2023-02-14T03:27:40.004Z,7.16
2023-02-14T03:30:15.985Z,7.14
2023-02-14T03:32:49.448Z,7.16
2023-02-14T03:35:23.790Z,7.14
2023-02-14T03:37:58.096Z,7.15
2023-02-14T03:40:32.438Z,7.14
2023-02-14T03:43:05.341Z,7.17
2023-02-14T03:45:36.886Z,7.15
2023-02-14T03:48:09.247Z,7.11
2023-02-14T03:50:39.931Z,7.09
2023-02-14T03:53:11.139Z,7.09
2023-02-14T03:55:45.723Z,7.05
2023-02-14T03:58:20.381Z,7.05
2023-02-14T04:00:51.643Z,7.06
2023-02-14T04:03:21.304Z,7.05
2023-02-14T04:05:52.390Z,6.97
2023-02-14T04:08:24.778Z,7.06
2023-02-14T04:10:55.284Z,7.05
2023-02-14T04:13:23.406Z,7.07
2023-02-14T04:15:51.123Z,7.06
2023-02-14T04:18:36.280Z,7.15
2023-02-14T04:21:04.023Z,7.10
2023-02-14T04:23:31.955Z,7.13
2023-02-14T04:26:01.052Z,7.18
2023-02-14T04:28:28.942Z,7.19
2023-02-14T04:30:56.817Z,7.18
2023-02-14T04:33:24.573Z,7.11
2023-02-14T04:35:52.353Z,7.05
2023-02-14T04:38:20.092Z,7.04
2023-02-14T04:40:49.976Z,7.06
2023-02-14T04:43:19.418Z,7.09
2023-02-14T04:45:48.465Z,7.04
2023-02-14T04:48:16.394Z,7.01
2023-02-14T04:50:44.214Z,6.91
2023-02-14T04:53:11.988Z,6.82
2023-02-14T04:55:39.780Z,6.78
2023-02-14T04:58:07.644Z,6.79
2023-02-14T05:00:36.866Z,6.76
2023-02-14T05:03:04.811Z,6.72
2023-02-14T05:05:32.532Z,6.71
2023-02-14T05:08:00.221Z,6.70
2023-02-14T05:10:29.150Z,6.68
2023-02-14T05:12:56.945Z,6.65
2023-02-14T05:15:24.655Z,6.60
2023-02-14T05:17:53.799Z,6.63
2023-02-14T05:20:21.817Z,6.62
2023-02-14T05:22:49.553Z,6.63
2023-02-14T05:25:19.631Z,6.72
2023-02-14T05:27:47.345Z,6.70
2023-02-14T05:30:30.776Z,6.64
2023-02-14T05:33:00.119Z,6.64
2023-02-14T05:35:28.268Z,6.72
2023-02-14T05:38:18.328Z,6.65
2023-02-14T05:40:46.793Z,6.71
2023-02-14T05:43:20.730Z,6.70
2023-02-14T05:45:48.970Z,6.72
2023-02-14T05:48:19.083Z,6.62
2023-02-14T05:50:46.917Z,6.85
2023-02-14T05:53:16.820Z,6.89
2023-02-14T05:55:44.567Z,6.92
2023-02-14T05:58:12.639Z,6.93
2023-02-14T06:00:41.389Z,6.94
2023-02-14T06:03:09.477Z,6.94
2023-02-14T06:05:38.611Z,6.93
2023-02-14T06:08:06.391Z,6.91
2023-02-14T06:10:34.504Z,6.87
2023-02-14T06:13:02.216Z,6.91
2023-02-14T06:15:29.927Z,6.95
2023-02-14T06:17:58.690Z,6.95
2023-02-14T06:20:27.503Z,7.00
2023-02-14T06:22:57.033Z,7.04
2023-02-14T06:25:25.605Z,7.02
2023-02-14T06:27:57.115Z,7.01
2023-02-14T06:30:25.918Z,7.00
2023-02-14T06:32:53.807Z,7.04
2023-02-14T06:35:21.498Z,6.97
2023-02-14T06:37:49.430Z,6.81
2023-02-14T06:40:19.655Z,6.81
2023-02-14T06:42:47.575Z,6.86
2023-02-14T06:45:15.264Z,6.85
2023-02-14T06:47:43.112Z,6.86
2023-02-14T06:50:12.495Z,6.83
2023-02-14T06:52:42.108Z,6.86
2023-02-14T06:55:11.723Z,6.85
2023-02-14T06:57:41.201Z,6.81
2023-02-14T07:00:10.284Z,6.78
2023-02-14T07:02:38.141Z,6.82
2023-02-14T07:05:06.384Z,6.77
2023-02-14T07:07:34.075Z,6.77
2023-02-14T07:10:01.875Z,6.77
2023-02-14T07:12:29.625Z,6.77
2023-02-14T07:14:58.715Z,6.79
2023-02-14T07:17:26.451Z,6.73
2023-02-14T07:19:54.244Z,6.78
2023-02-14T07:22:22.003Z,6.76
2023-02-14T07:24:49.792Z,6.82
2023-02-14T07:27:17.567Z,6.85
2023-02-14T07:29:45.301Z,6.87
2023-02-14T07:32:14.464Z,6.88
2023-02-14T07:34:42.277Z,6.83
2023-02-14T07:37:10.089Z,6.83
2023-02-14T07:39:37.847Z,6.86
2023-02-14T07:42:05.665Z,6.90
2023-02-14T07:44:33.500Z,6.94
2023-02-14T07:47:01.313Z,6.84
2023-02-14T07:49:30.390Z,6.91
2023-02-14T07:51:58.203Z,6.96
2023-02-14T07:54:26.303Z,6.91
2023-02-14T07:56:54.045Z,6.91
2023-02-14T07:59:22.709Z,6.95
2023-02-14T08:01:51.191Z,6.86
2023-02-14T08:04:18.941Z,6.98
2023-02-14T08:06:48.230Z,7.02
2023-02-14T08:09:24.524Z,7.05
2023-02-14T08:12:10.191Z,7.13
2023-02-14T08:14:38.255Z,7.09
2023-02-14T08:17:07.282Z,7.14
2023-02-14T08:19:35.206Z,7.19
2023-02-14T08:22:04.985Z,7.22
2023-02-14T08:24:33.268Z,7.28
2023-02-14T08:27:01.269Z,7.31
2023-02-14T08:29:29.077Z,7.06
2023-02-14T08:32:00.329Z,7.34
2023-02-14T08:34:28.200Z,7.39
2023-02-14T08:36:56.257Z,7.39
2023-02-14T08:39:25.608Z,7.43
2023-02-14T08:41:53.385Z,7.47
2023-02-14T08:44:21.757Z,7.48
2023-02-14T08:46:49.570Z,7.52
2023-02-14T08:49:17.356Z,7.53
2023-02-14T08:51:45.050Z,7.56
2023-02-14T08:54:12.747Z,7.53
2023-02-14T08:56:42.355Z,7.55
2023-02-14T08:59:10.119Z,7.59
2023-02-14T09:01:37.902Z,7.65
2023-02-14T09:04:05.762Z,7.69
2023-02-14T09:06:33.616Z,7.71
2023-02-14T09:09:02.665Z,7.70
2023-02-14T09:11:30.599Z,7.82
2023-02-14T09:13:59.694Z,7.84
2023-02-14T09:16:27.757Z,7.85
2023-02-14T09:18:56.587Z,7.93
2023-02-14T09:21:26.352Z,7.83
2023-02-14T09:23:54.869Z,8.02
2023-02-14T09:26:22.755Z,8.06
2023-02-14T09:28:50.805Z,8.10
2023-02-14T09:31:22.235Z,8.14
2023-02-14T09:34:08.836Z,8.20
2023-02-14T09:36:36.761Z,8.24
2023-02-14T09:39:05.088Z,8.26
2023-02-14T09:42:02.110Z,8.40
2023-02-14T09:44:36.056Z,8.46
2023-02-14T09:47:13.352Z,8.54
2023-02-14T09:49:42.063Z,8.64
2023-02-14T09:52:16.565Z,8.73
2023-02-14T09:54:49.139Z,8.88
2023-02-14T09:57:26.235Z,9.06
2023-02-14T10:00:01.671Z,9.26
2023-02-14T10:02:43.386Z,9.44
2023-02-14T10:05:15.857Z,9.53
2023-02-14T10:08:01.190Z,9.69
2023-02-14T10:10:35.135Z,9.79
2023-02-14T10:13:08.615Z,9.94
2023-02-14T10:15:41.594Z,10.13
2023-02-14T10:18:15.702Z,10.23
2023-02-14T10:20:45.773Z,10.40
2023-02-14T10:23:26.088Z,10.47
2023-02-14T10:26:00.643Z,10.63
2023-02-14T10:28:33.816Z,10.75
2023-02-14T10:31:19.153Z,10.94
2023-02-14T10:33:55.627Z,10.96
2023-02-14T10:36:37.745Z,11.16
2023-02-14T10:39:18.462Z,11.26
2023-02-14T10:41:53.813Z,11.40
2023-02-14T10:44:41.407Z,11.55
2023-02-14T10:47:22.175Z,11.76
2023-02-14T10:49:58.961Z,11.81
2023-02-14T10:52:32.238Z,12.02
2023-02-14T10:55:02.786Z,12.21
2023-02-14T10:57:35.132Z,12.26
2023-02-14T11:00:06.635Z,12.45
2023-02-14T11:02:37.833Z,12.61
2023-02-14T11:05:08.622Z,12.75
2023-02-14T11:07:36.276Z,12.96
2023-02-14T11:10:04.053Z,13.17
2023-02-14T11:12:37.412Z,13.42
2023-02-14T11:15:24.092Z,13.73
2023-02-14T11:18:11.248Z,13.87
2023-02-14T11:20:40.772Z,14.05
2023-02-14T11:23:21.921Z,14.15
2023-02-14T11:25:53.634Z,14.22
2023-02-14T11:28:21.815Z,14.40
2023-02-14T11:30:51.581Z,14.51
2023-02-14T11:33:35.109Z,14.51
2023-02-14T11:36:10.780Z,14.27
2023-02-14T11:38:40.089Z,14.00
2023-02-14T11:41:11.160Z,13.86
2023-02-14T11:43:40.559Z,13.95
2023-02-14T11:46:15.431Z,13.83
2023-02-14T11:48:58.043Z,14.03
2023-02-14T11:51:34.619Z,13.99
2023-02-14T11:54:05.307Z,13.88
2023-02-14T11:56:49.462Z,13.71
2023-02-14T11:59:28.389Z,13.70
2023-02-14T12:01:58.956Z,13.67
2023-02-14T12:04:45.652Z,14.05
2023-02-14T12:07:21.436Z,14.45
2023-02-14T12:10:05.482Z,14.36
2023-02-14T12:12:33.302Z,14.53
2023-02-14T12:15:24.076Z,14.99
2023-02-14T12:17:58.022Z,15.01
2023-02-14T12:20:39.190Z,14.85
2023-02-14T12:23:17.025Z,15.10
2023-02-14T12:25:49.795Z,14.86
2023-02-14T12:28:23.199Z,14.80
2023-02-14T12:30:54.638Z,14.59
2023-02-14T12:33:26.092Z,14.84
2023-02-14T12:36:02.574Z,14.98
2023-02-14T12:38:42.303Z,15.08
2023-02-14T12:41:24.661Z,15.08
2023-02-14T12:43:55.346Z,14.94
2023-02-14T12:46:49.203Z,14.70
2023-02-14T12:49:36.436Z,14.94
2023-02-14T12:52:20.689Z,14.82
2023-02-14T12:55:01.779Z,14.75
2023-02-14T12:57:44.331Z,14.78
2023-02-14T13:00:22.201Z,14.74
2023-02-14T13:03:28.034Z,14.64
2023-02-14T13:06:02.998Z,14.56
2023-02-14T13:09:01.307Z,14.27
2023-02-14T13:11:37.668Z,14.32
2023-02-14T13:14:18.531Z,14.15
2023-02-14T13:16:52.269Z,14.15
2023-02-14T13:19:34.374Z,14.08
2023-02-14T13:22:02.501Z,14.11
2023-02-14T13:24:36.355Z,14.09
2023-02-14T13:27:10.779Z,14.19
2023-02-14T13:29:46.247Z,14.17
2023-02-14T13:32:18.072Z,14.23
2023-02-14T13:34:52.732Z,14.19
2023-02-14T13:37:27.383Z,14.09
2023-02-14T13:40:01.814Z,13.83
2023-02-14T13:42:57.013Z,14.15
2023-02-14T13:45:55.178Z,14.11
2023-02-14T13:48:27.576Z,14.21
2023-02-14T13:50:58.284Z,14.38
2023-02-14T13:53:32.717Z,14.45
2023-02-14T13:56:01.001Z,14.35
2023-02-14T13:58:30.909Z,14.26
2023-02-14T14:00:59.382Z,14.34
2023-02-14T14:03:57.129Z,14.29
2023-02-14T14:06:25.090Z,14.37
2023-02-14T14:08:56.118Z,14.40
2023-02-14T14:11:56.981Z,14.32
2023-02-14T14:14:36.434Z,14.44
2023-02-14T14:17:20.711Z,14.58
2023-02-14T14:19:48.759Z,14.65
2023-02-14T14:22:17.630Z,14.68
2023-02-14T14:25:00.694Z,14.76
2023-02-14T14:27:32.928Z,14.81
2023-02-14T14:30:04.091Z,14.77
2023-02-14T14:32:34.241Z,14.73
2023-02-14T14:35:03.812Z,14.71
2023-02-14T14:37:33.587Z,14.72
2023-02-14T14:40:03.671Z,14.66
2023-02-14T14:42:36.777Z,14.61
2023-02-14T14:45:10.395Z,14.49
2023-02-14T14:47:43.365Z,14.39
2023-02-14T14:50:17.307Z,14.54
2023-02-14T14:52:48.338Z,14.54
2023-02-14T14:55:20.605Z,14.50
2023-02-14T14:57:51.556Z,14.46
2023-02-14T15:00:27.404Z,14.40
2023-02-14T15:03:08.448Z,14.28
2023-02-14T15:05:38.510Z,14.06
2023-02-14T15:08:31.847Z,14.09
2023-02-14T15:11:03.599Z,14.00
2023-02-14T15:13:53.236Z,13.92
2023-02-14T15:16:29.224Z,13.87
2023-02-14T15:19:03.974Z,13.78
2023-02-14T15:21:32.366Z,13.68
2023-02-14T15:24:01.908Z,13.49
2023-02-14T15:26:32.444Z,13.47
2023-02-14T15:29:06.730Z,13.44
2023-02-14T15:31:40.258Z,13.33
2023-02-14T15:34:09.817Z,13.19
2023-02-14T15:36:37.780Z,13.10
2023-02-14T15:39:09.412Z,13.11
2023-02-14T15:41:37.419Z,12.95
2023-02-14T15:44:05.626Z,12.94
2023-02-14T15:46:38.798Z,12.68
2023-02-14T15:49:10.648Z,12.66
2023-02-14T15:51:39.579Z,12.49
2023-02-14T15:54:22.047Z,12.74
2023-02-14T15:56:52.696Z,12.69
2023-02-14T15:59:23.557Z,12.62
2023-02-14T16:01:55.796Z,12.45
2023-02-14T16:04:25.617Z,12.32
2023-02-14T16:07:17.383Z,12.16
2023-02-14T16:09:45.179Z,12.22
2023-02-14T16:12:27.385Z,12.23
2023-02-14T16:15:03.188Z,12.28
2023-02-14T16:17:36.755Z,12.26
2023-02-14T16:20:27.698Z,12.19
2023-02-14T16:23:17.523Z,12.16
2023-02-14T16:25:45.789Z,12.11
2023-02-14T16:28:14.763Z,11.96
2023-02-14T16:30:43.800Z,12.00
2023-02-14T16:33:18.366Z,12.03
2023-02-14T16:35:47.018Z,11.92
2023-02-14T16:38:16.756Z,11.69
2023-02-14T16:40:47.834Z,11.54
2023-02-14T16:43:17.407Z,11.25
2023-02-14T16:45:45.751Z,11.22
2023-02-14T16:48:16.397Z,11.11
2023-02-14T16:50:45.149Z,11.03
2023-02-14T16:53:25.865Z,10.90
2023-02-14T16:55:55.114Z,10.83
2023-02-14T16:58:25.404Z,10.76
2023-02-14T17:00:53.154Z,10.67
2023-02-14T17:03:22.448Z,10.57
2023-02-14T17:05:50.412Z,10.53
2023-02-14T17:08:18.966Z,10.49
2023-02-14T17:10:48.940Z,10.47
2023-02-14T17:13:20.213Z,10.36
2023-02-14T17:15:48.374Z,10.37
2023-02-14T17:18:18.734Z,10.33
2023-02-14T17:20:48.358Z,10.33
2023-02-14T17:23:16.429Z,10.60
2023-02-14T17:25:44.249Z,10.73
2023-02-14T17:28:12.076Z,10.84
2023-02-14T17:30:40.285Z,10.85
2023-02-14T17:33:08.261Z,10.84
2023-02-14T17:35:36.523Z,10.74
2023-02-14T17:38:06.087Z,10.84
2023-02-14T17:40:34.034Z,10.81
2023-02-14T17:43:01.853Z,10.70
2023-02-14T17:45:29.740Z,10.68
2023-02-14T17:47:57.758Z,10.51
2023-02-14T17:50:25.490Z,10.56
2023-02-14T17:52:55.492Z,10.36
2023-02-14T17:55:25.053Z,10.48
2023-02-14T17:57:52.846Z,10.42
2023-02-14T18:00:22.315Z,10.36
2023-02-14T18:02:50.321Z,10.28
2023-02-14T18:05:18.121Z,10.25
2023-02-14T18:07:45.960Z,10.33
2023-02-14T18:10:13.751Z,10.44
2023-02-14T18:12:43.369Z,10.43
2023-02-14T18:15:11.208Z,10.41
2023-02-14T18:17:38.984Z,10.44
2023-02-14T18:20:08.162Z,10.44
2023-02-14T18:22:36.759Z,10.40
2023-02-14T18:25:04.711Z,10.38
2023-02-14T18:27:33.113Z,10.33
2023-02-14T18:30:02.600Z,10.20
2023-02-14T18:32:30.489Z,10.25
2023-02-14T18:34:58.195Z,10.23
2023-02-14T18:37:25.922Z,10.22
2023-02-14T18:39:53.754Z,10.02
2023-02-14T18:42:21.737Z,10.13
2023-02-14T18:44:49.550Z,10.07
2023-02-14T18:47:18.687Z,10.02
2023-02-14T18:49:46.459Z,9.95
2023-02-14T18:52:14.211Z,9.96
2023-02-14T18:54:42.198Z,9.87
2023-02-14T18:57:09.957Z,9.88
2023-02-14T18:59:37.709Z,9.84
2023-02-14T19:02:05.767Z,9.74
2023-02-14T19:04:34.928Z,9.78
2023-02-14T19:07:04.404Z,9.73
2023-02-14T19:09:38.885Z,9.71
2023-02-14T19:12:07.570Z,9.67
2023-02-14T19:14:35.547Z,9.68
2023-02-14T19:17:04.405Z,9.62
2023-02-14T19:19:32.224Z,9.57
2023-02-14T19:22:01.871Z,9.56
2023-02-14T19:24:29.759Z,9.53
2023-02-14T19:26:57.854Z,9.51
2023-02-14T19:29:26.063Z,9.47
2023-02-14T19:31:55.809Z,9.45
2023-02-14T19:34:28.274Z,9.46
2023-02-14T19:36:59.102Z,9.36
2023-02-14T19:39:30.530Z,9.36
2023-02-14T19:41:58.987Z,9.38
2023-02-14T19:44:28.815Z,9.29
2023-02-14T19:46:59.812Z,9.29
2023-02-14T19:49:28.907Z,9.20
2023-02-14T19:51:57.924Z,9.23
2023-02-14T19:54:30.161Z,9.23
2023-02-14T19:57:00.803Z,9.15
2023-02-14T19:59:28.628Z,8.91
2023-02-14T20:01:58.263Z,9.03
2023-02-14T20:04:28.643Z,9.09
2023-02-14T20:06:56.844Z,9.11
2023-02-14T20:09:25.555Z,9.07
2023-02-14T20:11:56.352Z,8.46
2023-02-14T20:14:25.920Z,9.05
2023-02-14T20:16:55.334Z,9.06
2023-02-14T20:19:26.941Z,9.03
2023-02-14T20:21:55.370Z,8.95
2023-02-14T20:24:24.718Z,8.97
2023-02-14T20:26:54.570Z,8.97
2023-02-14T20:29:24.040Z,8.93
2023-02-14T20:31:53.689Z,8.89
2023-02-14T20:34:21.918Z,8.78
2023-02-14T20:36:53.148Z,8.80
2023-02-14T20:39:22.691Z,8.69
2023-02-14T20:41:50.928Z,8.72
2023-02-14T20:44:23.129Z,8.73
2023-02-14T20:46:53.448Z,8.64
2023-02-14T20:49:22.506Z,8.53
2023-02-14T20:51:51.603Z,8.43
2023-02-14T20:54:21.012Z,8.58
2023-02-14T20:56:50.581Z,8.41
2023-02-14T20:59:24.296Z,8.49
2023-02-14T21:01:52.137Z,8.50
2023-02-14T21:04:19.852Z,8.52
2023-02-14T21:06:48.979Z,8.44
2023-02-14T21:09:18.569Z,8.46
2023-02-14T21:11:49.132Z,8.42
2023-02-14T21:14:23.652Z,8.34
2023-02-14T21:16:51.437Z,8.33
2023-02-14T21:19:19.779Z,8.36
2023-02-14T21:21:47.625Z,8.29
2023-02-14T21:24:16.866Z,8.28
2023-02-14T21:26:44.961Z,8.36
2023-02-14T21:29:12.728Z,8.34
2023-02-14T21:31:42.354Z,8.34
2023-02-14T21:34:10.258Z,8.28
2023-02-14T21:36:38.150Z,8.31
2023-02-14T21:39:07.346Z,8.16
2023-02-14T21:41:36.892Z,8.27
2023-02-14T21:44:07.687Z,8.18
2023-02-14T21:46:57.944Z,8.09
2023-02-14T21:49:43.174Z,8.19
2023-02-14T21:52:13.746Z,8.18
2023-02-14T21:54:41.479Z,8.14
2023-02-14T21:57:17.078Z,8.05
2023-02-14T21:59:52.313Z,8.06
2023-02-14T22:02:24.104Z,8.04
2023-02-14T22:04:51.907Z,8.04
2023-02-14T22:07:19.821Z,8.04
2023-02-14T22:09:47.596Z,8.02
2023-02-14T22:12:15.362Z,7.90
2023-02-14T22:14:43.088Z,7.98
2023-02-14T22:17:10.889Z,7.95
2023-02-14T22:19:39.969Z,7.95
2023-02-14T22:22:08.069Z,7.92
2023-02-14T22:24:35.861Z,7.88
2023-02-14T22:27:03.572Z,7.87
2023-02-14T22:29:31.297Z,7.88
2023-02-14T22:31:59.177Z,7.84
2023-02-14T22:34:27.054Z,7.83
2023-02-14T22:36:56.109Z,7.84
2023-02-14T22:39:24.075Z,7.78
2023-02-14T22:41:51.771Z,7.76
2023-02-14T22:44:19.779Z,7.67
2023-02-14T22:46:47.681Z,7.68
2023-02-14T22:49:15.510Z,7.74
2023-02-14T22:51:43.582Z,7.58
2023-02-14T22:54:14.897Z,7.66
2023-02-14T22:56:44.718Z,7.58
2023-02-14T22:59:17.058Z,7.62
2023-02-14T23:01:45.231Z,7.64
2023-02-14T23:04:13.987Z,7.58
2023-02-14T23:06:44.003Z,7.55
2023-02-14T23:09:17.356Z,7.51
2023-02-14T23:11:48.069Z,7.49
2023-02-14T23:14:35.169Z,7.53
2023-02-14T23:17:20.883Z,7.49
2023-02-14T23:20:06.695Z,7.50
2023-02-14T23:22:36.227Z,7.50
2023-02-14T23:25:08.112Z,7.45
2023-02-14T23:27:37.928Z,7.43
2023-02-14T23:30:07.921Z,7.30
2023-02-14T23:32:40.239Z,7.29
2023-02-14T23:35:08.585Z,7.39
2023-02-14T23:37:36.358Z,7.40
2023-02-14T23:40:06.735Z,7.41
2023-02-14T23:42:34.733Z,7.36
2023-02-14T23:45:16.463Z,7.33
2023-02-14T23:47:44.206Z,7.32
2023-02-14T23:50:12.148Z,7.28
2023-02-14T23:52:41.664Z,7.21
2023-02-14T23:55:11.179Z,7.29
2023-02-14T23:57:39.371Z,7.27
